»·PEaware :: SWA243 KPDX-KSFO

SWA243 :: KPDX-KSFO

FLIGHT INFORMATION

Flight Status: Arrived
Operator:
Southwest Airlines
More flights by this operator :: More flights under this callsign
Pilot: Cullen C. (7783)
Aircraft: BOEING 737-800
(B738)
More flights by this aircraft type
Origin: KPDX Portland Intl
United States
Destination: KSFO San Francisco Intl
United States
More flights between these airports :: More routes between these airports
Route: MINNE5 FAMUK Q3 FOWND MLBEC BDEGA2
File this flight plan on PilotEdge
Remarks:
Altitude:
(Current/Filed)
35,000ft
Speed:
(Current/Filed)
464kts
Departed: 05-Jan-18 08:00 PM
Arrived: 05-Jan-18 09:33 PM
Distance/Time
Traveled:
479nm/1:33
Distance/Time
To Go:
Arrived

Flight Plot

Page will automatically refresh every two minutes.


Map Options




Map Legend


Flown Route
Filed Route
Departure Airport
Arrival Airport
Navaid (VOR, NDB)
Fix

Horizontal Profiles

Position Reports

Time Latitude Longitude Heading Altitude Ground
Speed
05-Jan-18 19:41 45.590422 -122.598952 208 23ft 0kts
05-Jan-18 19:42 45.590422 -122.598952 208 23ft 0kts
05-Jan-18 19:43 45.590422 -122.598952 208 23ft 0kts
05-Jan-18 19:44 45.590422 -122.598952 208 23ft 0kts
05-Jan-18 19:45 45.590422 -122.598952 208 23ft 0kts
05-Jan-18 19:46 45.590422 -122.598952 208 23ft 0kts
05-Jan-18 19:47 45.590422 -122.598952 208 23ft 0kts
05-Jan-18 19:48 45.590422 -122.598952 208 23ft 0kts
05-Jan-18 19:49 45.590422 -122.598952 208 23ft 0kts
05-Jan-18 19:50 45.590422 -122.598952 208 23ft 0kts
05-Jan-18 19:51 45.590422 -122.598952 208 23ft 0kts
05-Jan-18 19:52 45.590422 -122.598952 208 23ft 0kts
05-Jan-18 19:53 45.590422 -122.598952 208 23ft 0kts
05-Jan-18 19:54 45.590422 -122.598952 208 23ft 0kts
05-Jan-18 19:55 45.590422 -122.598952 208 23ft 0kts
05-Jan-18 19:56 45.590695 -122.598735 215 23ft 2kts
05-Jan-18 19:57 45.590857 -122.597987 288 23ft 2kts
05-Jan-18 19:58 45.590707 -122.597593 298 23ft 0kts
05-Jan-18 19:59 45.590707 -122.597593 298 23ft 0kts
05-Jan-18 20:00 45.590804 -122.597831 300 23ft 3kts
05-Jan-18 20:01 45.591383 -122.598860 313 23ft 7kts
05-Jan-18 20:02 45.593825 -122.598364 44 23ft 13kts
05-Jan-18 20:03 45.594678 -122.595278 117 23ft 0kts
05-Jan-18 20:04 45.594678 -122.595278 117 23ft 0kts
05-Jan-18 20:05 45.594678 -122.595278 117 23ft 0kts
05-Jan-18 20:06 45.587047 -122.576017 115 386ft 150kts
05-Jan-18 20:07 45.570855 -122.513134 95 2305ft 204kts
05-Jan-18 20:08 45.560070 -122.427058 103 4949ft 236kts
05-Jan-18 20:09 45.535546 -122.338514 135 8053ft 263kts
05-Jan-18 20:10 45.462440 -122.315472 175 11136ft 294kts
05-Jan-18 20:11 45.412779 -122.379401 237 14251ft 320kts
05-Jan-18 20:12 45.369591 -122.509077 241 18369ft 310kts
05-Jan-18 20:13 45.333580 -122.620495 244 21205ft 316kts
05-Jan-18 20:14 45.303118 -122.715189 244 23239ft 326kts
05-Jan-18 20:15 45.258550 -122.854359 244 25964ft 338kts
05-Jan-18 20:16 45.222463 -122.951408 223 27948ft 336kts
05-Jan-18 20:17 45.132863 -122.988315 197 30208ft 345kts
05-Jan-18 20:18 45.024240 -123.014527 196 32554ft 338kts
05-Jan-18 20:19 44.947939 -123.032250 196 33961ft 333kts
05-Jan-18 20:20 44.857338 -123.053241 196 35130ft 338kts
05-Jan-18 20:21 44.760915 -123.075621 196 35143ft 371kts
05-Jan-18 20:22 44.654975 -123.100123 195 35140ft 402kts
05-Jan-18 20:23 44.545157 -123.125430 195 35152ft 402kts
05-Jan-18 20:24 44.432724 -123.134079 185 35152ft 412kts
05-Jan-18 20:25 44.318396 -123.129538 185 35153ft 412kts
05-Jan-18 20:26 44.203681 -123.125488 186 35152ft 411kts
05-Jan-18 20:27 44.089656 -123.121543 185 35178ft 412kts
05-Jan-18 20:28 43.975770 -123.117592 185 35177ft 412kts
05-Jan-18 20:29 43.864678 -123.113740 185 35186ft 413kts
05-Jan-18 20:30 43.750853 -123.109790 185 35184ft 413kts
05-Jan-18 20:31 43.636760 -123.105832 185 35183ft 413kts
05-Jan-18 20:32 43.522317 -123.101864 185 35233ft 413kts
05-Jan-18 20:33 43.407718 -123.097886 185 35235ft 414kts
05-Jan-18 20:34 43.293053 -123.093906 185 35234ft 414kts
05-Jan-18 20:35 43.178170 -123.089926 185 35233ft 415kts
05-Jan-18 20:36 43.063177 -123.085930 185 35232ft 414kts
05-Jan-18 20:37 42.948534 -123.081953 185 35231ft 415kts
05-Jan-18 20:38 42.834700 -123.078002 185 35239ft 415kts
05-Jan-18 20:39 42.720687 -123.074043 185 35213ft 414kts
05-Jan-18 20:40 42.605877 -123.070060 185 35210ft 414kts
05-Jan-18 20:41 42.491252 -123.066083 185 35209ft 413kts
05-Jan-18 20:42 42.376623 -123.062360 185 35208ft 413kts
05-Jan-18 20:43 42.262277 -123.058714 185 35207ft 413kts
05-Jan-18 20:44 42.147875 -123.055065 185 35206ft 412kts
05-Jan-18 20:45 42.033619 -123.051422 186 35205ft 412kts
05-Jan-18 20:46 41.919721 -123.047789 186 35204ft 411kts
05-Jan-18 20:47 41.809273 -123.044267 186 35213ft 411kts
05-Jan-18 20:48 41.695534 -123.040638 186 35185ft 410kts
05-Jan-18 20:49 41.581400 -123.036999 186 35183ft 410kts
05-Jan-18 20:50 41.467714 -123.033378 186 35183ft 410kts
05-Jan-18 20:51 41.354561 -123.029763 186 35204ft 409kts
05-Jan-18 20:52 41.241077 -123.026328 186 35207ft 409kts
05-Jan-18 20:53 41.127624 -123.022993 186 35206ft 409kts
05-Jan-18 20:54 41.014055 -123.019658 186 35205ft 408kts
05-Jan-18 20:55 40.900915 -123.016335 186 35204ft 408kts
05-Jan-18 20:56 40.791207 -123.013114 186 35213ft 408kts
05-Jan-18 20:57 40.678030 -123.009794 186 35212ft 408kts
05-Jan-18 20:58 40.569954 -123.006621 186 35211ft 408kts
05-Jan-18 20:59 40.456787 -123.003297 186 35210ft 408kts
05-Jan-18 21:00 40.344046 -122.999986 186 35209ft 408kts
05-Jan-18 21:01 40.230854 -122.996662 186 35207ft 408kts
05-Jan-18 21:02 40.118184 -122.993341 187 35206ft 405kts
05-Jan-18 21:03 40.005696 -122.990046 187 35205ft 405kts
05-Jan-18 21:04 39.896399 -122.986835 187 35204ft 405kts
05-Jan-18 21:05 39.785543 -122.983573 187 35214ft 401kts
05-Jan-18 21:06 39.674373 -122.980314 187 35213ft 401kts
05-Jan-18 21:07 39.563119 -122.977045 187 35232ft 401kts
05-Jan-18 21:08 39.452050 -122.973783 187 35237ft 401kts
05-Jan-18 21:09 39.341175 -122.970526 187 35236ft 400kts
05-Jan-18 21:10 39.229811 -122.967254 187 35235ft 401kts
05-Jan-18 21:11 39.119251 -122.964006 188 35233ft 401kts
05-Jan-18 21:12 39.011121 -122.961458 189 35194ft 362kts
05-Jan-18 21:13 38.916330 -122.959653 189 33783ft 328kts
05-Jan-18 21:14 38.828511 -122.946112 177 32196ft 350kts
05-Jan-18 21:15 38.734102 -122.917465 176 30457ft 354kts
05-Jan-18 21:16 38.637863 -122.888935 176 28678ft 360kts
05-Jan-18 21:17 38.540305 -122.860098 175 26875ft 365kts
05-Jan-18 21:18 38.441083 -122.830942 175 25039ft 366kts
05-Jan-18 21:19 38.343844 -122.802406 175 23241ft 355kts
05-Jan-18 21:20 38.249347 -122.774707 175 21493ft 346kts
05-Jan-18 21:21 38.157324 -122.747900 175 19793ft 336kts
05-Jan-18 21:22 38.067779 -122.721961 174 18137ft 328kts
05-Jan-18 21:23 37.979791 -122.696451 173 16254ft 317kts
05-Jan-18 21:24 37.895481 -122.668245 155 14678ft 324kts
05-Jan-18 21:25 37.825838 -122.595465 145 13051ft 322kts
05-Jan-18 21:26 37.760346 -122.525822 145 11571ft 303kts
05-Jan-18 21:27 37.698223 -122.459876 145 10304ft 283kts
05-Jan-18 21:28 37.638604 -122.396563 144 8753ft 280kts
05-Jan-18 21:29 37.573668 -122.347861 160 7097ft 275kts
05-Jan-18 21:30 37.503651 -122.316288 160 5740ft 269kts
05-Jan-18 21:31 37.439386 -122.274808 117 4331ft 264kts
05-Jan-18 21:32 37.431369 -122.186156 93 3961ft 241kts
05-Jan-18 21:33 37.462800 -122.127560 33 3986ft 220kts
05-Jan-18 21:34 37.513536 -122.128335 301 3305ft 196kts
05-Jan-18 21:35 37.540092 -122.188581 298 3006ft 199kts
05-Jan-18 21:36 37.564878 -122.247075 298 2000ft 176kts
05-Jan-18 21:37 37.586548 -122.298505 298 1106ft 158kts
05-Jan-18 21:38 37.605549 -122.343797 299 296ft 139kts
05-Jan-18 21:39 37.618490 -122.374546 296 19ft 29kts
05-Jan-18 21:40 37.618963 -122.378028 267 19ft 1kts
05-Jan-18 21:41 37.616439 -122.379754 206 19ft 17kts
05-Jan-18 21:42 37.612688 -122.382264 209 19ft 8kts
05-Jan-18 21:43 37.612827 -122.383160 298 19ft 0kts

Navigation Log

Ident Type
1. KPDX Airport
2. RIVRR Fix
3. COSUG Fix
4. BISLE Fix
5. MINNE Fix
6. FAMUK Fix
7. FAMUK Navaid
8. FRFLY Navaid
9. FINER Navaid
10. FOWND Navaid
11. MLBEC Fix
12. JONNE Fix
13. BGGLO Fix
14. LOZIT Fix
15. BDEGA Fix
16. CORKK Fix
17. BRIXX Fix
18. KSFO Airport